Time;durP1;ratioP1;P1;durP2;ratioP2;P2;SDS_P1;SDS_P2;PMS_P1;PMS_P2;Temp;Humidity;BMP_temperature;BMP_pressure;BME280_temperature;BME280_humidity;BME280_pressure;Samples;Min_cycle;Max_cycle;Signal;HPM_P1;HPM_P2
2022/11/26 00:00:38;;;;;;;17.15;7.15;;;7.70;99.90;;;;;;5071499;28;20143;-82
2022/11/26 00:03:03;;;;;;;20.13;6.82;;;7.60;99.90;;;;;;5071814;28;20111;-82
2022/11/26 00:05:31;;;;;;;16.88;6.50;;;7.50;99.90;;;;;;5071799;28;20081;-82
2022/11/26 00:07:58;;;;;;;22.52;7.43;;;7.40;99.90;;;;;;5072025;28;20025;-82
2022/11/26 00:10:29;;;;;;;16.83;7.60;;;7.40;99.90;;;;;;5072860;28;20065;-82
2022/11/26 00:12:56;;;;;;;18.73;7.13;;;7.40;99.90;;;;;;5075188;28;20073;-82
2022/11/26 00:15:28;;;;;;;19.88;7.97;;;7.40;99.90;;;;;;5076468;28;20098;-81
2022/11/26 00:17:54;;;;;;;22.05;7.90;;;7.40;99.90;;;;;;5067974;28;20032;-82
2022/11/26 00:20:26;;;;;;;15.20;7.00;;;8.00;99.90;;;;;;5055066;28;20393;-82
2022/11/26 00:22:54;;;;;;;18.48;8.45;;;7.30;99.90;;;;;;5055437;28;20125;-82
2022/11/26 00:25:22;;;;;;;18.42;10.13;;;7.20;99.90;;;;;;5055235;28;20036;-81
2022/11/26 00:27:50;;;;;;;25.55;15.93;;;7.20;99.90;;;;;;5055299;28;20029;-81
2022/11/26 00:30:25;;;;;;;20.60;9.68;;;7.10;99.90;;;;;;5055183;28;20025;-82
2022/11/26 00:32:52;;;;;;;26.17;12.93;;;7.10;99.90;;;;;;5061879;28;20036;-81
2022/11/26 00:35:18;;;;;;;20.45;9.75;;;7.10;99.90;;;;;;5075079;28;20028;-81
2022/11/26 00:37:49;;;;;;;20.27;10.90;;;7.00;99.90;;;;;;5075984;28;20043;-82
2022/11/26 00:40:24;;;;;;;21.77;11.02;;;7.00;99.90;;;;;;5075053;28;20361;-82
2022/11/26 00:42:50;;;;;;;65.35;30.08;;;6.90;99.90;;;;;;5075491;28;20031;-82
2022/11/26 00:45:19;;;;;;;52.47;24.75;;;6.90;99.90;;;;;;5074822;28;20086;-82
2022/11/26 00:47:45;;;;;;;35.75;17.85;;;6.90;99.90;;;;;;5075152;28;20032;-81
2022/11/26 00:50:16;;;;;;;20.23;9.88;;;6.80;99.90;;;;;;5075036;28;20087;-82
2022/11/26 00:52:42;;;;;;;37.97;15.02;;;6.80;99.90;;;;;;5075141;28;20063;-82
2022/11/26 00:55:16;;;;;;;23.27;10.55;;;6.80;99.90;;;;;;5074798;28;20028;-82
2022/11/26 00:57:41;;;;;;;25.23;12.82;;;6.70;99.90;;;;;;5075469;28;20451;-82
2022/11/26 01:00:19;;;;;;;69.43;37.22;;;6.70;99.90;;;;;;5074765;28;20060;-82
2022/11/26 01:02:45;;;;;;;27.00;12.15;;;6.70;99.90;;;;;;5073351;28;20111;-81
2022/11/26 01:05:11;;;;;;;34.97;13.30;;;6.60;99.90;;;;;;5074926;28;20036;-82
2022/11/26 01:07:38;;;;;;;27.90;14.13;;;6.60;99.90;;;;;;5074636;28;20545;-82
2022/11/26 01:10:04;;;;;;;18.98;8.77;;;6.60;99.90;;;;;;5074443;28;20099;-82
2022/11/26 01:12:30;;;;;;;19.15;8.65;;;6.60;99.90;;;;;;5073917;28;20021;-82
2022/11/26 01:14:55;;;;;;;18.30;8.85;;;6.50;99.90;;;;;;5074370;28;20545;-82
2022/11/26 01:17:21;;;;;;;30.58;13.60;;;6.50;99.90;;;;;;5070691;28;20036;-82
2022/11/26 01:19:47;;;;;;;38.78;21.92;;;6.50;99.90;;;;;;5054625;28;20074;-82
2022/11/26 01:22:21;;;;;;;26.13;10.38;;;6.90;99.90;;;;;;5053938;28;20037;-82
2022/11/26 01:24:47;;;;;;;27.23;12.57;;;6.50;99.90;;;;;;5052833;28;20036;-82
2022/11/26 01:27:13;;;;;;;24.17;8.60;;;6.60;99.90;;;;;;5053643;28;20495;-82
2022/11/26 01:29:39;;;;;;;26.08;9.18;;;6.50;99.90;;;;;;5053987;28;20036;-82
2022/11/26 01:32:04;;;;;;;21.00;8.27;;;6.40;99.90;;;;;;5054693;28;20087;-82
2022/11/26 01:34:30;;;;;;;19.33;8.65;;;6.40;99.90;;;;;;5073837;28;20508;-82
2022/11/26 01:36:56;;;;;;;17.83;7.78;;;6.80;99.90;;;;;;5073935;28;20039;-82
2022/11/26 01:39:22;;;;;;;20.23;8.50;;;6.30;99.90;;;;;;5074209;28;20475;-81
2022/11/26 01:42:17;;;;;;;24.58;8.70;;;6.30;99.90;;;;;;5073444;28;20031;-82
2022/11/26 01:44:42;;;;;;;24.38;9.02;;;6.30;99.90;;;;;;5069733;28;20072;-81
2022/11/26 01:47:27;;;;;;;21.20;8.18;;;6.20;99.90;;;;;;5072469;28;20059;-82
2022/11/26 01:50:26;;;;;;;22.67;8.18;;;6.20;99.90;;;;;;5074339;28;20125;-82
2022/11/26 01:52:54;;;;;;;22.45;8.50;;;6.10;99.90;;;;;;5072347;28;20052;-82
2022/11/26 01:55:20;;;;;;;26.80;8.63;;;6.00;99.90;;;;;;5073659;28;20464;-82
2022/11/26 01:57:46;;;;;;;18.88;7.32;;;6.00;99.90;;;;;;5073309;28;20024;-82
2022/11/26 02:00:12;;;;;;;18.45;7.50;;;5.90;99.90;;;;;;5073568;28;20028;-82
2022/11/26 02:02:38;;;;;;;20.58;7.85;;;5.90;99.90;;;;;;5073857;28;20035;-82
2022/11/26 02:05:08;;;;;;;21.13;7.97;;;5.90;99.90;;;;;;5073391;28;20028;-82
2022/11/26 02:07:34;;;;;;;18.45;7.50;;;5.80;99.90;;;;;;5073400;28;20025;-82
2022/11/26 02:10:00;;;;;;;23.15;8.32;;;5.80;99.90;;;;;;5072963;28;20400;-82
2022/11/26 02:12:26;;;;;;;16.90;8.52;;;5.80;99.90;;;;;;5073126;28;20016;-82
2022/11/26 02:14:52;;;;;;;22.35;8.00;;;5.80;99.90;;;;;;5073219;28;20052;-82
2022/11/26 02:17:31;;;;;;;21.75;7.70;;;5.80;99.90;;;;;;5069962;28;20061;-82
2022/11/26 02:20:32;;;;;;;19.60;9.00;;;5.80;99.90;;;;;;5053131;28;20033;-82
2022/11/26 02:23:12;;;;;;;24.33;9.40;;;5.90;99.90;;;;;;5053103;28;20435;-82
2022/11/26 02:26:07;;;;;;;26.23;9.20;;;6.00;99.90;;;;;;5052862;28;20044;-82
2022/11/26 02:29:03;;;;;;;22.92;9.00;;;6.00;99.90;;;;;;5053220;28;20507;-81
2022/11/26 02:31:56;;;;;;;20.17;8.23;;;6.10;99.90;;;;;;5052955;28;20017;-82
2022/11/26 02:34:45;;;;;;;22.38;8.88;;;6.00;99.90;;;;;;5071610;28;20048;-82
2022/11/26 02:37:23;;;;;;;28.50;9.23;;;6.00;99.90;;;;;;5072727;28;20031;-82
2022/11/26 02:39:50;;;;;;;25.83;9.63;;;6.00;99.90;;;;;;5072632;28;20035;-82
2022/11/26 02:42:33;;;;;;;22.15;9.10;;;6.00;99.90;;;;;;5072582;28;20043;-82
2022/11/26 02:45:10;;;;;;;21.48;9.10;;;6.00;99.90;;;;;;5071387;28;20028;-82
2022/11/26 02:47:38;;;;;;;32.13;9.48;;;6.00;99.90;;;;;;5072523;28;20399;-81
2022/11/26 02:50:14;;;;;;;26.05;9.85;;;6.00;99.90;;;;;;5072472;28;20027;-82
2022/11/26 02:52:41;;;;;;;28.63;9.95;;;5.90;99.90;;;;;;5072705;28;20031;-82
2022/11/26 02:55:11;;;;;;;25.52;9.25;;;5.80;99.90;;;;;;5072334;28;20017;-82
2022/11/26 02:57:44;;;;;;;29.35;10.43;;;5.70;99.90;;;;;;5072282;28;20496;-82
2022/11/26 03:00:10;;;;;;;30.63;10.60;;;5.80;99.90;;;;;;5072477;28;20043;-82
2022/11/26 03:02:58;;;;;;;24.17;10.50;;;5.80;99.90;;;;;;5072325;28;20016;-81
2022/11/26 03:05:26;;;;;;;27.95;10.70;;;5.80;99.90;;;;;;5072281;28;20035;-82
2022/11/26 03:07:53;;;;;;;21.60;10.27;;;5.70;99.90;;;;;;5071922;28;20397;-82
2022/11/26 03:10:29;;;;;;;20.35;10.20;;;5.70;99.90;;;;;;5073067;28;20033;-82
2022/11/26 03:12:54;;;;;;;20.77;10.18;;;5.70;99.90;;;;;;5072252;28;20120;-82
2022/11/26 03:15:20;;;;;;;22.63;10.77;;;5.80;99.90;;;;;;5072455;28;20056;-82
2022/11/26 03:17:46;;;;;;;21.05;10.10;;;5.60;99.90;;;;;;5065350;28;20037;-82
2022/11/26 03:20:12;;;;;;;31.08;11.77;;;5.60;99.90;;;;;;5052356;28;20025;-82
2022/11/26 03:22:37;;;;;;;21.35;10.75;;;5.60;99.90;;;;;;5052006;28;20077;-81
2022/11/26 03:25:04;;;;;;;24.67;11.30;;;5.70;99.90;;;;;;5052010;28;20029;-82
2022/11/26 03:27:30;;;;;;;27.95;11.32;;;5.70;99.90;;;;;;5052093;28;20494;-82
2022/11/26 03:29:55;;;;;;;21.80;11.07;;;5.80;99.90;;;;;;5051925;28;20187;-82
2022/11/26 03:32:21;;;;;;;23.23;11.18;;;5.80;99.90;;;;;;5055095;28;20485;-82
2022/11/26 03:34:46;;;;;;;22.17;10.30;;;5.90;99.90;;;;;;5072380;28;20048;-82
2022/11/26 03:37:12;;;;;;;21.58;9.57;;;5.80;99.90;;;;;;5071472;28;20032;-82
2022/11/26 03:39:38;;;;;;;21.48;9.88;;;5.80;99.90;;;;;;5072129;28;20643;-82
2022/11/26 03:42:03;;;;;;;23.13;10.80;;;5.70;99.90;;;;;;5072096;28;20021;-82
2022/11/26 03:44:29;;;;;;;21.60;10.60;;;5.60;99.90;;;;;;5071993;28;20074;-82
2022/11/26 03:46:55;;;;;;;23.88;10.25;;;5.50;99.90;;;;;;5076300;28;20029;-82
2022/11/26 03:49:20;;;;;;;23.25;11.10;;;5.60;99.90;;;;;;5075888;28;20365;-82
2022/11/26 03:51:46;;;;;;;27.50;11.23;;;6.10;99.90;;;;;;5075505;28;20036;-82
2022/11/26 03:54:11;;;;;;;23.98;11.57;;;5.70;99.90;;;;;;5075899;28;20380;-82
2022/11/26 03:56:37;;;;;;;21.10;11.25;;;5.70;99.90;;;;;;5075842;28;20052;-81
2022/11/26 03:59:03;;;;;;;22.55;10.07;;;5.80;99.90;;;;;;5076133;28;20025;-82
2022/11/26 04:01:28;;;;;;;19.23;10.27;;;5.80;99.90;;;;;;5075825;28;20028;-82
2022/11/26 04:03:54;;;;;;;20.35;10.65;;;5.70;99.90;;;;;;5075699;28;20039;-82
2022/11/26 04:06:20;;;;;;;22.90;10.77;;;5.80;99.90;;;;;;5075239;28;20031;-82
2022/11/26 04:08:45;;;;;;;26.35;11.40;;;5.80;99.90;;;;;;5075635;28;20032;-82
2022/11/26 04:11:12;;;;;;;37.35;13.20;;;5.90;99.90;;;;;;5075997;28;20059;-82
2022/11/26 04:13:38;;;;;;;23.92;10.93;;;5.90;99.90;;;;;;5075414;28;20033;-82
2022/11/26 04:16:04;;;;;;;28.52;12.80;;;6.00;99.90;;;;;;5075473;28;20028;-82
2022/11/26 04:18:29;;;;;;;22.30;11.25;;;5.90;99.90;;;;;;5062475;28;20041;-82
2022/11/26 04:20:55;;;;;;;24.70;12.48;;;6.00;99.90;;;;;;5055271;28;20397;-81
2022/11/26 04:23:21;;;;;;;28.80;12.43;;;6.60;99.90;;;;;;5055376;28;20033;-82
2022/11/26 04:25:46;;;;;;;23.58;12.23;;;6.20;99.90;;;;;;5055217;28;20029;-82
2022/11/26 04:28:13;;;;;;;30.05;13.30;;;6.20;99.90;;;;;;5055317;28;20061;-82
2022/11/26 04:30:40;;;;;;;33.95;12.75;;;6.20;99.90;;;;;;5055605;28;20481;-82
2022/11/26 04:33:05;;;;;;;30.25;13.43;;;6.20;99.90;;;;;;5063898;28;20046;-82
2022/11/26 04:35:31;;;;;;;33.40;13.65;;;6.50;99.90;;;;;;5075248;28;20103;-82
2022/11/26 04:37:56;;;;;;;38.83;14.77;;;6.40;99.90;;;;;;5074957;28;20373;-81
2022/11/26 04:40:22;;;;;;;28.58;13.57;;;6.10;99.90;;;;;;5074976;28;20039;-82
2022/11/26 04:42:48;;;;;;;33.03;14.65;;;6.10;99.90;;;;;;5075493;28;20484;-82
2022/11/26 04:45:13;;;;;;;38.90;14.50;;;6.50;99.90;;;;;;5075014;28;20039;-82
2022/11/26 04:47:39;;;;;;;28.23;14.55;;;6.20;99.90;;;;;;5074881;28;20431;-82
2022/11/26 04:50:05;;;;;;;34.78;13.45;;;6.20;99.90;;;;;;5074656;28;20566;-82
2022/11/26 04:52:31;;;;;;;34.80;14.13;;;6.10;99.90;;;;;;5074803;28;20032;-81
2022/11/26 04:54:56;;;;;;;36.75;13.88;;;6.10;99.90;;;;;;5074881;28;20032;-82
2022/11/26 04:57:22;;;;;;;30.30;12.95;;;6.20;99.90;;;;;;5074467;28;20056;-82
2022/11/26 04:59:48;;;;;;;27.23;13.18;;;6.20;99.90;;;;;;5074644;28;20032;-82
2022/11/26 05:02:13;;;;;;;32.95;13.52;;;6.20;99.90;;;;;;5074694;28;20027;-82
2022/11/26 05:04:39;;;;;;;33.78;13.00;;;6.20;99.90;;;;;;5074358;28;20033;-82
2022/11/26 05:07:04;;;;;;;34.72;13.18;;;6.10;99.90;;;;;;5074709;28;20423;-82
2022/11/26 05:09:30;;;;;;;32.30;13.23;;;6.30;99.90;;;;;;5074614;28;20028;-82
2022/11/26 05:11:56;;;;;;;37.33;13.18;;;6.30;99.90;;;;;;5074389;28;20226;-81
2022/11/26 05:14:21;;;;;;;33.05;13.32;;;6.60;99.90;;;;;;5074336;28;20035;-82
2022/11/26 05:16:47;;;;;;;27.38;11.90;;;6.20;99.90;;;;;;5074737;28;20028;-81
2022/11/26 05:19:12;;;;;;;23.60;12.48;;;6.10;99.90;;;;;;5055647;28;20500;-82
2022/11/26 05:21:38;;;;;;;31.17;12.23;;;6.10;99.90;;;;;;5054251;28;20035;-82
2022/11/26 05:24:04;;;;;;;29.00;12.55;;;6.00;99.90;;;;;;5054803;28;20087;-82
2022/11/26 05:26:29;;;;;;;36.47;13.25;;;5.90;99.90;;;;;;5054284;28;20021;-82
2022/11/26 05:28:55;;;;;;;29.77;12.35;;;5.90;99.90;;;;;;5054342;28;20062;-82
2022/11/26 05:31:21;;;;;;;23.88;11.48;;;5.80;99.90;;;;;;5054205;28;20025;-82
2022/11/26 05:33:46;;;;;;;31.20;12.73;;;5.80;99.90;;;;;;5068112;28;20052;-81
2022/11/26 05:36:12;;;;;;;28.33;12.80;;;5.70;99.90;;;;;;5074593;28;20021;-82
2022/11/26 05:38:37;;;;;;;25.23;12.52;;;5.70;99.90;;;;;;5073719;28;20040;-82
2022/11/26 05:41:03;;;;;;;23.38;11.80;;;5.70;99.90;;;;;;5074264;28;20381;-82
2022/11/26 05:43:29;;;;;;;23.25;11.50;;;5.70;99.90;;;;;;5073982;28;20148;-82
2022/11/26 05:45:54;;;;;;;28.38;12.88;;;5.80;99.90;;;;;;5073936;28;20494;-82
2022/11/26 05:48:20;;;;;;;28.80;11.73;;;5.70;99.90;;;;;;5073347;28;20381;-82
2022/11/26 05:50:46;;;;;;;23.83;11.13;;;5.70;99.90;;;;;;5073585;28;20024;-82
2022/11/26 05:53:11;;;;;;;31.77;12.30;;;5.80;99.90;;;;;;5074129;28;20373;-82
2022/11/26 05:55:37;;;;;;;28.65;11.98;;;5.80;99.90;;;;;;5073596;28;20474;-82
2022/11/26 05:58:03;;;;;;;31.17;11.98;;;5.90;99.90;;;;;;5073445;28;20063;-82
2022/11/26 06:00:28;;;;;;;28.77;13.00;;;6.00;99.90;;;;;;5073474;28;20025;-82
2022/11/26 06:02:54;;;;;;;33.22;11.73;;;6.60;99.90;;;;;;5073125;28;20035;-83
2022/11/26 06:05:19;;;;;;;35.08;12.98;;;6.00;99.90;;;;;;5073533;28;20102;-82
2022/11/26 06:07:45;;;;;;;29.67;11.77;;;6.10;99.90;;;;;;5072749;28;20031;-82
2022/11/26 06:10:12;;;;;;;28.05;11.20;;;6.10;99.90;;;;;;5073397;28;20029;-82
2022/11/26 06:12:38;;;;;;;29.38;12.23;;;6.20;99.90;;;;;;5073664;28;20389;-82
2022/11/26 06:15:04;;;;;;;28.33;11.82;;;6.10;99.90;;;;;;5072749;28;20040;-82
2022/11/26 06:17:29;;;;;;;26.48;12.07;;;6.20;99.90;;;;;;5068446;28;20036;-81
2022/11/26 06:19:55;;;;;;;29.42;11.80;;;6.20;99.90;;;;;;5051900;28;20033;-82
2022/11/26 06:22:20;;;;;;;26.27;11.65;;;6.10;99.90;;;;;;5053059;28;20120;-81
2022/11/26 06:24:46;;;;;;;28.38;11.30;;;6.10;99.90;;;;;;5053042;28;20032;-82
2022/11/26 06:27:11;;;;;;;25.73;10.77;;;6.20;99.90;;;;;;5052931;28;20021;-82
2022/11/26 06:29:37;;;;;;;22.67;10.05;;;6.30;99.90;;;;;;5052583;28;20086;-82
2022/11/26 06:32:03;;;;;;;26.10;10.27;;;6.40;99.90;;;;;;5053655;28;20032;-82
2022/11/26 06:34:28;;;;;;;26.08;10.18;;;6.50;99.90;;;;;;5072705;28;20067;-82
2022/11/26 06:36:54;;;;;;;27.88;10.77;;;6.50;99.90;;;;;;5072787;28;20035;-82
2022/11/26 06:39:19;;;;;;;27.58;10.93;;;6.70;99.90;;;;;;5073099;28;20105;-81
2022/11/26 06:41:45;;;;;;;27.42;11.32;;;6.60;99.90;;;;;;5072566;28;20020;-82
2022/11/26 06:44:11;;;;;;;32.47;13.00;;;7.10;99.90;;;;;;5072343;28;20051;-82
2022/11/26 06:46:36;;;;;;;27.65;11.10;;;6.60;99.90;;;;;;5072431;28;20024;-82
2022/11/26 06:49:03;;;;;;;28.58;11.20;;;6.50;99.90;;;;;;5072811;28;20029;-82
2022/11/26 06:51:29;;;;;;;29.45;11.05;;;6.50;99.90;;;;;;5072480;28;20453;-82
2022/11/26 06:53:55;;;;;;;23.35;11.32;;;6.50;99.90;;;;;;5072535;28;20059;-81
2022/11/26 06:56:21;;;;;;;30.45;11.30;;;6.50;99.90;;;;;;5072805;28;20036;-82
2022/11/26 06:58:48;;;;;;;28.25;14.93;;;6.50;99.90;;;;;;5072058;28;20120;-82
2022/11/26 07:01:15;;;;;;;31.20;10.48;;;6.50;99.90;;;;;;5072246;28;20518;-82
2022/11/26 07:03:41;;;;;;;21.67;11.10;;;6.40;99.90;;;;;;5072120;28;20029;-82
2022/11/26 07:06:18;;;;;;;22.83;10.20;;;6.40;99.90;;;;;;5072796;28;20032;-82
2022/11/26 07:08:44;;;;;;;22.42;10.18;;;6.50;99.90;;;;;;5072340;28;20443;-82
2022/11/26 07:11:10;;;;;;;36.10;15.35;;;6.50;99.90;;;;;;5072287;28;20097;-81
2022/11/26 07:13:36;;;;;;;36.45;15.77;;;6.50;99.90;;;;;;5071958;28;20025;-82
2022/11/26 07:16:03;;;;;;;24.33;11.63;;;6.90;99.90;;;;;;5072204;28;20031;-82
2022/11/26 07:18:29;;;;;;;23.00;11.57;;;6.50;99.90;;;;;;5059185;28;20041;-82
2022/11/26 07:20:54;;;;;;;31.77;13.60;;;6.50;99.90;;;;;;5052080;28;20025;-82
2022/11/26 07:23:20;;;;;;;30.88;14.85;;;6.90;99.90;;;;;;5052156;28;20052;-82
2022/11/26 07:25:46;;;;;;;27.55;11.35;;;6.90;99.90;;;;;;5051902;28;20376;-82
2022/11/26 07:28:11;;;;;;;29.35;12.35;;;6.50;99.90;;;;;;5052141;28;20040;-82
2022/11/26 07:30:37;;;;;;;26.75;10.95;;;6.50;99.90;;;;;;5051976;28;20017;-82
2022/11/26 07:33:03;;;;;;;22.90;10.65;;;6.50;99.90;;;;;;5060345;28;20551;-82
2022/11/26 07:35:29;;;;;;;22.05;11.48;;;6.50;99.90;;;;;;5072067;28;20020;-82
2022/11/26 07:37:55;;;;;;;24.13;11.10;;;6.70;99.90;;;;;;5071946;28;20074;-82
2022/11/26 07:40:21;;;;;;;23.85;10.85;;;6.80;99.90;;;;;;5072132;28;20051;-81
2022/11/26 07:42:47;;;;;;;18.15;10.88;;;6.90;99.90;;;;;;5071723;28;20033;-82
2022/11/26 07:45:13;;;;;;;26.75;12.23;;;6.70;99.90;;;;;;5072247;28;20503;-82
2022/11/26 07:47:38;;;;;;;24.67;11.77;;;6.80;99.90;;;;;;5071793;28;20061;-82
2022/11/26 07:50:04;;;;;;;27.42;11.07;;;6.90;99.90;;;;;;5071901;28;20056;-82
2022/11/26 07:52:30;;;;;;;19.85;9.77;;;6.90;99.90;;;;;;5072438;28;20031;-82
2022/11/26 07:54:56;;;;;;;20.85;9.70;;;7.00;99.90;;;;;;5071819;28;20444;-82
2022/11/26 07:57:21;;;;;;;25.08;10.90;;;7.00;99.90;;;;;;5071688;28;20029;-83
2022/11/26 07:59:47;;;;;;;23.80;10.75;;;7.00;99.90;;;;;;5071592;28;20036;-82
2022/11/26 08:02:14;;;;;;;36.10;12.82;;;7.00;99.90;;;;;;5071770;28;20067;-82
2022/11/26 08:04:40;;;;;;;24.73;11.50;;;7.10;99.90;;;;;;5071849;28;20040;-82
2022/11/26 08:07:06;;;;;;;25.48;11.77;;;7.00;99.90;;;;;;5071951;28;20021;-83
2022/11/26 08:09:33;;;;;;;23.95;12.55;;;7.10;99.90;;;;;;5071893;28;20484;-83
2022/11/26 08:11:59;;;;;;;15.77;8.23;;;7.10;99.90;;;;;;5071530;28;20020;-82
2022/11/26 08:14:24;;;;;;;26.60;12.35;;;7.20;99.90;;;;;;5071345;28;20039;-83
2022/11/26 08:16:50;;;;;;;16.05;9.40;;;7.40;99.90;;;;;;5071670;28;20358;-83
2022/11/26 08:19:16;;;;;;;29.40;13.82;;;7.20;99.90;;;;;;5052725;28;20037;-83
2022/11/26 08:21:41;;;;;;;17.48;9.63;;;7.20;99.90;;;;;;5051493;28;20095;-82
2022/11/26 08:24:15;;;;;;;16.02;8.93;;;7.40;99.90;;;;;;5051516;28;20057;-82
2022/11/26 08:26:42;;;;;;;20.98;9.80;;;7.50;99.90;;;;;;5051202;28;20017;-83
2022/11/26 08:29:07;;;;;;;21.13;9.70;;;7.50;99.90;;;;;;5051629;28;20088;-83
2022/11/26 08:31:33;;;;;;;20.02;9.30;;;7.50;99.90;;;;;;5053003;28;20029;-83
2022/11/26 08:33:59;;;;;;;19.85;9.95;;;7.60;99.90;;;;;;5070108;28;20425;-83
2022/11/26 08:36:27;;;;;;;36.28;23.05;;;7.50;99.90;;;;;;5074995;28;20028;-83
2022/11/26 08:38:52;;;;;;;133.68;117.80;;;7.60;99.90;;;;;;5075334;28;20032;-82
2022/11/26 08:41:18;;;;;;;17.63;10.02;;;7.60;99.90;;;;;;5074629;28;20020;-82
2022/11/26 08:43:44;;;;;;;55.40;31.65;;;7.50;99.90;;;;;;5074810;28;20059;-83
2022/11/26 08:46:10;;;;;;;24.63;15.00;;;7.60;99.90;;;;;;5075001;28;20079;-83
2022/11/26 08:48:36;;;;;;;19.60;8.98;;;7.70;99.90;;;;;;5075335;28;20025;-83
2022/11/26 08:51:04;;;;;;;47.83;26.90;;;8.00;99.90;;;;;;5074784;28;20020;-83
2022/11/26 08:53:32;;;;;;;18.92;12.25;;;7.80;99.90;;;;;;5074913;28;20115;-83
2022/11/26 08:56:09;;;;;;;18.00;7.82;;;7.80;99.90;;;;;;5074522;28;20021;-83
2022/11/26 08:58:38;;;;;;;31.92;22.67;;;7.70;99.90;;;;;;5074524;28;20041;-82
2022/11/26 09:01:10;;;;;;;16.23;7.70;;;7.80;99.90;;;;;;5074445;28;20023;-83
2022/11/26 09:03:37;;;;;;;16.60;8.57;;;7.80;99.90;;;;;;5075048;28;20134;-83
2022/11/26 09:06:04;;;;;;;13.90;8.70;;;7.80;99.90;;;;;;5074589;28;20021;-82
2022/11/26 09:08:33;;;;;;;17.70;10.30;;;7.90;99.90;;;;;;5074544;28;20052;-83
2022/11/26 09:10:59;;;;;;;15.80;9.23;;;7.90;99.90;;;;;;5073993;28;20027;-83
2022/11/26 09:13:25;;;;;;;13.43;9.25;;;8.20;99.90;;;;;;5074436;28;20341;-82
2022/11/26 09:15:51;;;;;;;12.57;7.95;;;8.00;99.90;;;;;;5074292;28;20112;-83
2022/11/26 09:18:17;;;;;;;15.38;8.70;;;8.00;99.90;;;;;;5063616;28;20080;-82
2022/11/26 09:20:42;;;;;;;15.38;8.45;;;7.90;99.90;;;;;;5054353;28;20435;-83
2022/11/26 09:23:08;;;;;;;13.80;8.38;;;7.70;99.90;;;;;;5054523;28;20025;-82
2022/11/26 09:25:37;;;;;;;15.10;7.90;;;7.80;99.90;;;;;;5054591;28;20071;-82
2022/11/26 09:28:03;;;;;;;14.65;7.55;;;7.80;99.90;;;;;;5054116;28;20025;-82
2022/11/26 09:30:29;;;;;;;14.23;7.40;;;8.00;99.90;;;;;;5052721;28;20021;-82
2022/11/26 09:32:55;;;;;;;9.65;6.80;;;8.10;99.90;;;;;;5061769;28;20415;-82
2022/11/26 09:35:20;;;;;;;9.95;6.80;;;8.20;99.90;;;;;;5074327;28;20025;-83
2022/11/26 09:37:46;;;;;;;12.80;6.10;;;8.30;99.90;;;;;;5073835;28;20033;-82
2022/11/26 09:40:17;;;;;;;10.40;6.22;;;8.30;99.90;;;;;;5073763;28;20085;-82
2022/11/26 09:42:50;;;;;;;9.02;6.00;;;8.30;99.90;;;;;;5074164;28;20484;-82
2022/11/26 09:45:36;;;;;;;12.07;6.32;;;8.30;99.90;;;;;;5073939;28;20035;-82
2022/11/26 09:48:03;;;;;;;10.65;6.43;;;8.30;99.90;;;;;;5073845;28;20059;-83
2022/11/26 09:50:32;;;;;;;13.48;6.47;;;8.20;99.90;;;;;;5073630;28;20020;-82
2022/11/26 09:53:27;;;;;;;10.52;6.47;;;8.10;99.90;;;;;;5073489;28;20028;-82
2022/11/26 09:55:55;;;;;;;10.00;6.55;;;8.10;99.90;;;;;;5073444;28;20066;-82
2022/11/26 09:58:29;;;;;;;9.85;6.22;;;8.30;99.90;;;;;;5073540;28;20029;-82
2022/11/26 10:00:57;;;;;;;11.27;6.55;;;8.40;99.90;;;;;;5073585;28;20021;-82
2022/11/26 10:03:30;;;;;;;11.68;6.93;;;8.40;99.90;;;;;;5073784;28;20029;-82
2022/11/26 10:06:09;;;;;;;9.18;5.82;;;8.50;99.90;;;;;;5073238;28;20065;-83
2022/11/26 10:09:10;;;;;;;11.35;6.25;;;8.60;99.90;;;;;;5072669;28;20032;-82
2022/11/26 10:11:38;;;;;;;352.02;135.30;;;8.50;99.90;;;;;;5073639;28;20025;-82
2022/11/26 10:14:27;;;;;;;30.45;13.18;;;8.50;99.90;;;;;;5073227;28;20024;-83
2022/11/26 10:17:05;;;;;;;47.78;22.13;;;8.50;99.90;;;;;;5073302;28;20032;-82
2022/11/26 10:20:03;;;;;;;50.53;22.63;;;8.40;99.90;;;;;;5052786;28;20190;-82
2022/11/26 10:22:50;;;;;;;60.38;29.00;;;8.50;99.90;;;;;;5053242;28;20399;-82
2022/11/26 10:25:23;;;;;;;120.28;60.42;;;8.60;99.90;;;;;;5052939;28;20091;-83
2022/11/26 10:27:49;;;;;;;15.40;9.02;;;8.70;99.90;;;;;;5052793;28;20029;-83
2022/11/26 10:30:20;;;;;;;24.63;14.07;;;8.80;99.90;;;;;;5053047;28;20124;-82
2022/11/26 10:32:47;;;;;;;54.35;34.90;;;8.70;99.90;;;;;;5052883;28;20441;-82
2022/11/26 10:35:26;;;;;;;14.55;8.32;;;8.50;99.90;;;;;;5052843;28;20036;-82
2022/11/26 10:37:56;;;;;;;11.52;7.65;;;8.50;99.90;;;;;;5052278;28;20024;-83
2022/11/26 10:40:32;;;;;;;19.35;17.10;;;8.70;99.90;;;;;;5053018;28;20429;-83
2022/11/26 10:43:01;;;;;;;70.30;53.38;;;8.60;99.90;;;;;;5052775;28;20021;-82
2022/11/26 10:45:42;;;;;;;25.27;16.67;;;8.80;99.90;;;;;;5052723;28;20401;-83
2022/11/26 10:48:21;;;;;;;28.92;19.77;;;8.80;99.90;;;;;;5052726;28;20021;-83
2022/11/26 10:51:14;;;;;;;69.40;49.40;;;8.80;99.90;;;;;;5052291;28;20109;-83
2022/11/26 10:54:03;;;;;;;32.35;20.48;;;8.80;99.90;;;;;;5052003;28;20025;-82
2022/11/26 10:56:40;;;;;;;9.82;6.00;;;8.70;99.90;;;;;;5052431;28;20013;-82
2022/11/26 10:59:35;;;;;;;160.10;82.78;;;8.80;99.90;;;;;;5052263;28;20033;-83
2022/11/26 11:02:05;;;;;;;23.65;12.63;;;8.60;99.90;;;;;;5052464;28;20032;-82
2022/11/26 11:04:39;;;;;;;47.03;23.52;;;8.80;99.90;;;;;;5052294;28;20043;-82
2022/11/26 11:07:05;;;;;;;33.03;19.48;;;8.70;99.90;;;;;;5051806;28;20032;-82
2022/11/26 11:09:36;;;;;;;10.93;6.35;;;8.60;99.90;;;;;;5052658;28;20363;-82
2022/11/26 11:12:19;;;;;;;24.35;18.15;;;8.80;99.90;;;;;;5052339;28;20050;-83
2022/11/26 11:14:45;;;;;;;11.20;7.57;;;8.70;99.90;;;;;;5052115;28;20524;-82
2022/11/26 11:17:29;;;;;;;9.88;5.88;;;8.80;99.90;;;;;;5052078;28;20385;-82
2022/11/26 11:20:03;;;;;;;10.50;5.47;;;8.80;99.90;;;;;;5051943;28;20048;-83
2022/11/26 11:22:29;;;;;;;7.57;4.60;;;8.90;99.90;;;;;;5052111;28;20017;-83
2022/11/26 11:24:57;;;;;;;12.50;8.05;;;8.90;99.90;;;;;;5052208;28;20033;-83
2022/11/26 11:27:26;;;;;;;10.52;6.72;;;8.90;99.90;;;;;;5052031;28;20025;-83
2022/11/26 11:29:52;;;;;;;8.73;5.57;;;8.90;99.90;;;;;;5052006;28;20491;-82
2022/11/26 11:32:38;;;;;;;10.98;5.50;;;8.90;99.90;;;;;;5054677;28;20013;-82
2022/11/26 11:35:21;;;;;;;12.57;7.70;;;9.10;99.90;;;;;;5071649;28;20036;-82
2022/11/26 11:37:53;;;;;;;10.27;4.90;;;9.00;99.90;;;;;;5070473;28;20037;-82
2022/11/26 11:40:24;;;;;;;11.38;5.70;;;9.40;99.90;;;;;;5071986;28;20633;-82
2022/11/26 11:43:02;;;;;;;10.68;5.88;;;9.20;99.90;;;;;;5072475;28;20052;-82
2022/11/26 11:45:40;;;;;;;10.70;4.75;;;9.30;99.90;;;;;;5071723;28;20024;-83
2022/11/26 11:48:06;;;;;;;9.43;5.03;;;9.30;99.90;;;;;;5071161;28;20017;-82
2022/11/26 11:50:40;;;;;;;8.48;4.85;;;9.40;99.90;;;;;;5071459;28;20068;-82
2022/11/26 11:53:43;;;;;;;7.15;4.38;;;9.20;99.90;;;;;;5071867;28;20024;-83
2022/11/26 11:56:32;;;;;;;6.72;3.95;;;9.20;99.90;;;;;;5071839;28;20127;-82
2022/11/26 11:59:35;;;;;;;8.52;4.55;;;9.20;99.90;;;;;;5071763;28;20044;-82
2022/11/26 12:02:30;;;;;;;9.07;4.80;;;9.20;99.90;;;;;;5071857;28;20020;-82
2022/11/26 12:05:19;;;;;;;8.43;4.55;;;9.20;99.90;;;;;;5067293;28;20116;-83
2022/11/26 12:08:16;;;;;;;11.10;4.55;;;9.20;99.90;;;;;;5075168;28;20500;-82
2022/11/26 12:11:17;;;;;;;7.70;4.70;;;9.10;99.90;;;;;;5076092;28;20077;-82
2022/11/26 12:13:54;;;;;;;9.65;3.92;;;9.10;99.90;;;;;;5075745;28;20198;-82
2022/11/26 12:16:23;;;;;;;5.82;3.97;;;9.20;99.90;;;;;;5075717;28;20025;-82
2022/11/26 12:19:23;;;;;;;8.60;4.18;;;9.20;99.90;;;;;;5059816;28;20102;-82
2022/11/26 12:22:12;;;;;;;7.75;4.35;;;9.20;99.90;;;;;;5054960;28;20040;-82
2022/11/26 12:24:43;;;;;;;6.07;3.95;;;8.80;99.90;;;;;;5049789;28;20037;-83
2022/11/26 12:27:20;;;;;;;7.18;4.38;;;8.70;99.90;;;;;;5055166;28;20021;-82
2022/11/26 12:29:56;;;;;;;11.07;4.00;;;8.90;99.90;;;;;;5055254;28;20071;-82
2022/11/26 12:32:44;;;;;;;7.82;4.50;;;9.00;99.90;;;;;;5057394;28;20020;-82
2022/11/26 12:35:19;;;;;;;8.50;4.63;;;9.00;99.90;;;;;;5074841;28;20447;-82
2022/11/26 12:37:50;;;;;;;8.73;4.85;;;9.00;99.90;;;;;;5075483;28;20052;-82
2022/11/26 12:40:31;;;;;;;5.68;3.97;;;9.00;99.90;;;;;;5075444;28;20036;-82
2022/11/26 12:43:08;;;;;;;8.55;4.30;;;8.90;99.90;;;;;;5075158;28;20016;-82
2022/11/26 12:46:03;;;;;;;10.68;4.25;;;9.00;99.90;;;;;;5074976;28;20400;-82
2022/11/26 12:48:35;;;;;;;12.60;4.95;;;8.90;99.90;;;;;;5074407;28;20029;-82
2022/11/26 12:51:16;;;;;;;9.65;4.50;;;9.00;99.90;;;;;;5075302;28;20096;-82
2022/11/26 12:53:52;;;;;;;10.57;5.18;;;9.10;99.90;;;;;;5074851;28;20471;-82
2022/11/26 12:56:44;;;;;;;9.73;4.78;;;9.20;99.90;;;;;;5075129;28;20069;-82
2022/11/26 12:59:23;;;;;;;9.30;4.15;;;9.20;99.90;;;;;;5074703;28;20071;-82